< < Back
Terminal Aerodrome Forecast


Current Version              Previous Versions:   1  2  3  4  5  6  7  8  9  

Terminal Aerodrome Forecast

325
FTUS42 KGSP 311252 AAA
TAFHKY
TAF AMD
KHKY 311252Z 3113/0112 33004KT P6SM SCT017 BKN060
      TEMPO 3113/3114 BKN017
     FM311400 35004KT P6SM SCT060 BKN100
     FM010100 31003KT P6SM -RA OVC060
     FM010300 31006KT P6SM -RA OVC023
     FM010600 30007KT 6SM -RA OVC016=



Latest METAR

403
SAUS70 KWBC 311600 RRJ
MTRHKY
METAR KHKY 311553Z VRB03KT 10SM OVC018 11/04 A2994 RMK AO2 SLP127
T01060039


USA.gov is the U.S. government's official web portal to all federal, state and local government web resources and services.